sensor_id;sensor_type;location;lat;lon;timestamp;temperature;humidity
18978;DHT22;9623;52.344;20.870;2022-10-30T00:01:54;20.10;57.80
18978;DHT22;9623;52.344;20.870;2022-10-30T00:04:24;20.10;57.80
18978;DHT22;9623;52.344;20.870;2022-10-30T00:06:54;20.10;57.80
18978;DHT22;9623;52.344;20.870;2022-10-30T00:12:03;20.20;57.80
18978;DHT22;9623;52.344;20.870;2022-10-30T00:14:32;20.10;57.70
18978;DHT22;9623;52.344;20.870;2022-10-30T00:19:41;20.20;58.50
18978;DHT22;9623;52.344;20.870;2022-10-30T00:22:10;20.10;57.70
18978;DHT22;9623;52.344;20.870;2022-10-30T00:24:39;20.10;57.80
18978;DHT22;9623;52.344;20.870;2022-10-30T00:27:09;20.10;57.70
18978;DHT22;9623;52.344;20.870;2022-10-30T00:29:38;20.10;58.40
18978;DHT22;9623;52.344;20.870;2022-10-30T00:32:07;20.10;57.70
18978;DHT22;9623;52.344;20.870;2022-10-30T00:34:36;20.10;57.80
18978;DHT22;9623;52.344;20.870;2022-10-30T00:37:05;20.10;57.70
18978;DHT22;9623;52.344;20.870;2022-10-30T00:39:34;20.10;57.70
18978;DHT22;9623;52.344;20.870;2022-10-30T00:42:03;20.10;57.70
18978;DHT22;9623;52.344;20.870;2022-10-30T00:44:44;20.10;57.80
18978;DHT22;9623;52.344;20.870;2022-10-30T00:47:19;20.20;57.70
18978;DHT22;9623;52.344;20.870;2022-10-30T00:49:52;20.10;57.70
18978;DHT22;9623;52.344;20.870;2022-10-30T00:57:42;20.10;57.80
18978;DHT22;9623;52.344;20.870;2022-10-30T01:00:14;20.10;57.70
18978;DHT22;9623;52.344;20.870;2022-10-30T01:02:46;20.10;57.70
18978;DHT22;9623;52.344;20.870;2022-10-30T01:05:17;20.10;57.30
18978;DHT22;9623;52.344;20.870;2022-10-30T01:07:49;20.10;57.70
18978;DHT22;9623;52.344;20.870;2022-10-30T01:10:19;20.10;57.80
18978;DHT22;9623;52.344;20.870;2022-10-30T01:12:49;20.10;57.70
18978;DHT22;9623;52.344;20.870;2022-10-30T01:18:13;20.10;57.70
18978;DHT22;9623;52.344;20.870;2022-10-30T01:20:58;20.10;57.80
18978;DHT22;9623;52.344;20.870;2022-10-30T01:23:34;20.10;57.70
18978;DHT22;9623;52.344;20.870;2022-10-30T01:26:08;20.10;57.70
18978;DHT22;9623;52.344;20.870;2022-10-30T01:28:48;20.20;57.70
18978;DHT22;9623;52.344;20.870;2022-10-30T01:31:23;20.10;57.70
18978;DHT22;9623;52.344;20.870;2022-10-30T01:33:58;20.10;57.60
18978;DHT22;9623;52.344;20.870;2022-10-30T01:36:29;20.10;57.70
18978;DHT22;9623;52.344;20.870;2022-10-30T01:39:01;20.10;57.60
18978;DHT22;9623;52.344;20.870;2022-10-30T01:41:32;20.10;57.60
18978;DHT22;9623;52.344;20.870;2022-10-30T01:44:04;20.10;57.70
18978;DHT22;9623;52.344;20.870;2022-10-30T01:46:58;20.10;57.60
18978;DHT22;9623;52.344;20.870;2022-10-30T01:55:28;20.10;57.60
18978;DHT22;9623;52.344;20.870;2022-10-30T01:58:01;20.10;57.70
18978;DHT22;9623;52.344;20.870;2022-10-30T02:00:31;20.10;57.60
18978;DHT22;9623;52.344;20.870;2022-10-30T02:03:01;20.10;57.60
18978;DHT22;9623;52.344;20.870;2022-10-30T02:08:13;20.20;57.60
18978;DHT22;9623;52.344;20.870;2022-10-30T02:10:45;20.10;57.60
18978;DHT22;9623;52.344;20.870;2022-10-30T02:13:15;20.10;57.60
18978;DHT22;9623;52.344;20.870;2022-10-30T02:15:46;20.10;57.60
18978;DHT22;9623;52.344;20.870;2022-10-30T02:18:16;20.10;57.60
18978;DHT22;9623;52.344;20.870;2022-10-30T02:20:45;20.10;57.60
18978;DHT22;9623;52.344;20.870;2022-10-30T02:23:15;20.10;57.60
18978;DHT22;9623;52.344;20.870;2022-10-30T02:25:45;20.10;57.60
18978;DHT22;9623;52.344;20.870;2022-10-30T02:30:56;20.10;57.50
18978;DHT22;9623;52.344;20.870;2022-10-30T02:36:07;20.20;57.60
18978;DHT22;9623;52.344;20.870;2022-10-30T02:38:36;20.10;57.50
18978;DHT22;9623;52.344;20.870;2022-10-30T02:41:05;20.10;57.60
18978;DHT22;9623;52.344;20.870;2022-10-30T02:43:34;20.10;57.50
18978;DHT22;9623;52.344;20.870;2022-10-30T02:46:04;20.10;57.50
18978;DHT22;9623;52.344;20.870;2022-10-30T02:48:33;20.20;57.60
18978;DHT22;9623;52.344;20.870;2022-10-30T02:51:03;20.10;57.50
18978;DHT22;9623;52.344;20.870;2022-10-30T02:53:33;20.10;57.50
18978;DHT22;9623;52.344;20.870;2022-10-30T02:56:08;20.10;57.50
18978;DHT22;9623;52.344;20.870;2022-10-30T02:58:38;20.10;57.50
18978;DHT22;9623;52.344;20.870;2022-10-30T03:01:08;20.10;58.10
18978;DHT22;9623;52.344;20.870;2022-10-30T03:03:38;20.10;57.50
18978;DHT22;9623;52.344;20.870;2022-10-30T03:08:47;20.10;57.60
18978;DHT22;9623;52.344;20.870;2022-10-30T03:11:18;20.10;57.50
18978;DHT22;9623;52.344;20.870;2022-10-30T03:13:48;20.10;57.50
18978;DHT22;9623;52.344;20.870;2022-10-30T03:18:57;20.10;57.40
18978;DHT22;9623;52.344;20.870;2022-10-30T03:21:28;20.10;57.40
18978;DHT22;9623;52.344;20.870;2022-10-30T03:23:57;20.10;57.40
18978;DHT22;9623;52.344;20.870;2022-10-30T03:26:26;20.10;57.40
18978;DHT22;9623;52.344;20.870;2022-10-30T03:28:56;20.10;57.40
18978;DHT22;9623;52.344;20.870;2022-10-30T03:31:26;20.10;57.40
18978;DHT22;9623;52.344;20.870;2022-10-30T03:33:57;20.10;57.40
18978;DHT22;9623;52.344;20.870;2022-10-30T03:36:26;20.10;57.40
18978;DHT22;9623;52.344;20.870;2022-10-30T03:38:57;20.10;57.30
18978;DHT22;9623;52.344;20.870;2022-10-30T03:41:26;20.10;57.30
18978;DHT22;9623;52.344;20.870;2022-10-30T03:43:55;20.10;57.30
18978;DHT22;9623;52.344;20.870;2022-10-30T03:49:05;20.10;57.30
18978;DHT22;9623;52.344;20.870;2022-10-30T03:51:35;20.10;57.40
18978;DHT22;9623;52.344;20.870;2022-10-30T03:54:05;20.10;57.30
18978;DHT22;9623;52.344;20.870;2022-10-30T03:56:35;20.10;57.30
18978;DHT22;9623;52.344;20.870;2022-10-30T04:01:44;20.10;57.40
18978;DHT22;9623;52.344;20.870;2022-10-30T04:04:13;20.10;57.40
18978;DHT22;9623;52.344;20.870;2022-10-30T04:06:42;20.10;57.30
18978;DHT22;9623;52.344;20.870;2022-10-30T04:09:12;20.10;57.30
18978;DHT22;9623;52.344;20.870;2022-10-30T04:11:41;20.10;57.40
18978;DHT22;9623;52.344;20.870;2022-10-30T04:14:12;20.10;57.40
18978;DHT22;9623;52.344;20.870;2022-10-30T04:16:42;20.10;57.30
18978;DHT22;9623;52.344;20.870;2022-10-30T04:19:11;20.10;57.40
18978;DHT22;9623;52.344;20.870;2022-10-30T04:21:41;20.10;57.30
18978;DHT22;9623;52.344;20.870;2022-10-30T04:24:10;20.10;57.30
18978;DHT22;9623;52.344;20.870;2022-10-30T04:26:41;20.10;57.40
18978;DHT22;9623;52.344;20.870;2022-10-30T04:29:10;20.10;57.40
18978;DHT22;9623;52.344;20.870;2022-10-30T04:31:39;20.10;57.40
18978;DHT22;9623;52.344;20.870;2022-10-30T04:34:08;20.10;57.40
18978;DHT22;9623;52.344;20.870;2022-10-30T04:36:39;20.10;57.40
18978;DHT22;9623;52.344;20.870;2022-10-30T04:39:08;20.10;57.40
18978;DHT22;9623;52.344;20.870;2022-10-30T04:41:38;20.10;57.40
18978;DHT22;9623;52.344;20.870;2022-10-30T04:44:08;20.10;57.40
18978;DHT22;9623;52.344;20.870;2022-10-30T04:46:38;20.10;57.40
18978;DHT22;9623;52.344;20.870;2022-10-30T04:49:07;20.10;57.40
18978;DHT22;9623;52.344;20.870;2022-10-30T04:51:37;20.10;57.40
18978;DHT22;9623;52.344;20.870;2022-10-30T04:54:08;20.10;57.50
18978;DHT22;9623;52.344;20.870;2022-10-30T04:56:37;20.10;57.40
18978;DHT22;9623;52.344;20.870;2022-10-30T05:01:47;20.10;57.50
18978;DHT22;9623;52.344;20.870;2022-10-30T05:04:17;20.10;57.40
18978;DHT22;9623;52.344;20.870;2022-10-30T05:06:46;20.10;57.40
18978;DHT22;9623;52.344;20.870;2022-10-30T05:09:15;20.10;57.40
18978;DHT22;9623;52.344;20.870;2022-10-30T05:11:45;20.10;57.50
18978;DHT22;9623;52.344;20.870;2022-10-30T05:14:14;20.10;57.50
18978;DHT22;9623;52.344;20.870;2022-10-30T05:19:24;20.10;57.50
18978;DHT22;9623;52.344;20.870;2022-10-30T05:21:54;20.10;57.50
18978;DHT22;9623;52.344;20.870;2022-10-30T05:27:04;20.10;57.50
18978;DHT22;9623;52.344;20.870;2022-10-30T05:32:16;20.10;57.40
18978;DHT22;9623;52.344;20.870;2022-10-30T05:34:45;20.10;57.40
18978;DHT22;9623;52.344;20.870;2022-10-30T05:37:14;20.10;57.40
18978;DHT22;9623;52.344;20.870;2022-10-30T05:39:43;20.10;57.50
18978;DHT22;9623;52.344;20.870;2022-10-30T05:42:12;20.10;57.40
18978;DHT22;9623;52.344;20.870;2022-10-30T05:44:42;20.10;57.50
18978;DHT22;9623;52.344;20.870;2022-10-30T05:47:11;20.10;57.40
18978;DHT22;9623;52.344;20.870;2022-10-30T05:49:40;20.10;57.40
18978;DHT22;9623;52.344;20.870;2022-10-30T05:52:09;20.10;57.40
18978;DHT22;9623;52.344;20.870;2022-10-30T05:54:38;20.10;57.40
18978;DHT22;9623;52.344;20.870;2022-10-30T05:57:08;20.10;57.40
18978;DHT22;9623;52.344;20.870;2022-10-30T05:59:37;20.10;57.40
18978;DHT22;9623;52.344;20.870;2022-10-30T06:02:06;20.10;57.40
18978;DHT22;9623;52.344;20.870;2022-10-30T06:04:35;20.10;57.40
18978;DHT22;9623;52.344;20.870;2022-10-30T06:07:04;20.10;57.40
18978;DHT22;9623;52.344;20.870;2022-10-30T06:09:34;20.10;57.40
18978;DHT22;9623;52.344;20.870;2022-10-30T06:12:04;20.10;57.30
18978;DHT22;9623;52.344;20.870;2022-10-30T06:14:33;20.10;57.30
18978;DHT22;9623;52.344;20.870;2022-10-30T06:17:02;20.20;57.40
18978;DHT22;9623;52.344;20.870;2022-10-30T06:19:31;20.20;57.40
18978;DHT22;9623;52.344;20.870;2022-10-30T06:22:00;20.20;57.30
18978;DHT22;9623;52.344;20.870;2022-10-30T06:24:28;20.20;57.30
18978;DHT22;9623;52.344;20.870;2022-10-30T06:26:58;20.20;57.30
18978;DHT22;9623;52.344;20.870;2022-10-30T06:29:28;20.20;57.30
18978;DHT22;9623;52.344;20.870;2022-10-30T06:31:57;20.20;57.30
18978;DHT22;9623;52.344;20.870;2022-10-30T06:34:27;20.20;57.30
18978;DHT22;9623;52.344;20.870;2022-10-30T06:39:36;20.20;57.20
18978;DHT22;9623;52.344;20.870;2022-10-30T06:42:06;20.20;57.30
18978;DHT22;9623;52.344;20.870;2022-10-30T06:47:17;20.20;57.20
18978;DHT22;9623;52.344;20.870;2022-10-30T06:49:47;20.20;57.20
18978;DHT22;9623;52.344;20.870;2022-10-30T06:52:16;20.20;57.20
18978;DHT22;9623;52.344;20.870;2022-10-30T06:54:47;20.20;57.20
18978;DHT22;9623;52.344;20.870;2022-10-30T06:57:16;20.20;57.10
18978;DHT22;9623;52.344;20.870;2022-10-30T06:59:45;20.20;57.10
18978;DHT22;9623;52.344;20.870;2022-10-30T07:02:17;20.20;57.10
18978;DHT22;9623;52.344;20.870;2022-10-30T07:04:46;20.30;57.10
18978;DHT22;9623;52.344;20.870;2022-10-30T07:07:16;20.30;57.10
18978;DHT22;9623;52.344;20.870;2022-10-30T07:09:45;20.30;57.10
18978;DHT22;9623;52.344;20.870;2022-10-30T07:12:14;20.30;57.00
18978;DHT22;9623;52.344;20.870;2022-10-30T07:14:43;20.30;57.10
18978;DHT22;9623;52.344;20.870;2022-10-30T07:17:12;20.30;57.10
18978;DHT22;9623;52.344;20.870;2022-10-30T07:19:42;20.40;57.20
18978;DHT22;9623;52.344;20.870;2022-10-30T07:22:11;20.40;57.20
18978;DHT22;9623;52.344;20.870;2022-10-30T07:27:21;20.40;57.40
18978;DHT22;9623;52.344;20.870;2022-10-30T07:32:30;20.40;57.40
18978;DHT22;9623;52.344;20.870;2022-10-30T07:34:59;20.40;57.30
18978;DHT22;9623;52.344;20.870;2022-10-30T07:37:30;20.40;57.30
18978;DHT22;9623;52.344;20.870;2022-10-30T07:39:59;20.40;57.20
18978;DHT22;9623;52.344;20.870;2022-10-30T07:42:29;20.40;57.20
18978;DHT22;9623;52.344;20.870;2022-10-30T07:44:58;20.40;57.20
18978;DHT22;9623;52.344;20.870;2022-10-30T07:50:09;20.40;57.10
18978;DHT22;9623;52.344;20.870;2022-10-30T07:55:19;20.40;57.10
18978;DHT22;9623;52.344;20.870;2022-10-30T07:57:49;20.50;57.10
18978;DHT22;9623;52.344;20.870;2022-10-30T08:02:58;20.50;57.10
18978;DHT22;9623;52.344;20.870;2022-10-30T08:05:27;20.50;57.00
18978;DHT22;9623;52.344;20.870;2022-10-30T08:07:57;20.50;57.10
18978;DHT22;9623;52.344;20.870;2022-10-30T08:10:27;20.50;57.00
18978;DHT22;9623;52.344;20.870;2022-10-30T08:15:37;20.60;57.10
18978;DHT22;9623;52.344;20.870;2022-10-30T08:18:06;20.60;57.10
18978;DHT22;9623;52.344;20.870;2022-10-30T08:20:37;20.60;57.00
18978;DHT22;9623;52.344;20.870;2022-10-30T08:23:07;20.60;57.00
18978;DHT22;9623;52.344;20.870;2022-10-30T08:28:16;20.60;57.10
18978;DHT22;9623;52.344;20.870;2022-10-30T08:30:47;20.60;57.00
18978;DHT22;9623;52.344;20.870;2022-10-30T08:33:16;20.60;57.00
18978;DHT22;9623;52.344;20.870;2022-10-30T08:35:49;20.60;57.00
18978;DHT22;9623;52.344;20.870;2022-10-30T08:38:18;20.60;57.10
18978;DHT22;9623;52.344;20.870;2022-10-30T08:40:48;20.60;57.00
18978;DHT22;9623;52.344;20.870;2022-10-30T08:43:17;20.60;57.10
18978;DHT22;9623;52.344;20.870;2022-10-30T08:45:48;20.60;57.00
18978;DHT22;9623;52.344;20.870;2022-10-30T08:48:17;20.60;56.90
18978;DHT22;9623;52.344;20.870;2022-10-30T08:50:46;20.70;57.00
18978;DHT22;9623;52.344;20.870;2022-10-30T08:55:54;20.70;56.90
18978;DHT22;9623;52.344;20.870;2022-10-30T08:58:23;20.70;56.90
18978;DHT22;9623;52.344;20.870;2022-10-30T09:00:52;20.70;56.90
18978;DHT22;9623;52.344;20.870;2022-10-30T09:03:21;20.70;56.90
18978;DHT22;9623;52.344;20.870;2022-10-30T09:05:50;20.70;56.90
18978;DHT22;9623;52.344;20.870;2022-10-30T09:08:19;20.70;56.90
18978;DHT22;9623;52.344;20.870;2022-10-30T09:10:49;20.70;56.80
18978;DHT22;9623;52.344;20.870;2022-10-30T09:13:19;20.70;56.90
18978;DHT22;9623;52.344;20.870;2022-10-30T09:15:48;20.70;56.80
18978;DHT22;9623;52.344;20.870;2022-10-30T09:20:57;20.70;56.80
18978;DHT22;9623;52.344;20.870;2022-10-30T09:23:26;20.70;56.80
18978;DHT22;9623;52.344;20.870;2022-10-30T09:25:57;20.70;56.90
18978;DHT22;9623;52.344;20.870;2022-10-30T09:28:26;20.70;56.90
18978;DHT22;9623;52.344;20.870;2022-10-30T09:30:55;20.70;56.90
18978;DHT22;9623;52.344;20.870;2022-10-30T09:36:06;20.70;56.80
18978;DHT22;9623;52.344;20.870;2022-10-30T09:38:35;20.70;56.80
18978;DHT22;9623;52.344;20.870;2022-10-30T09:41:15;20.70;56.80
18978;DHT22;9623;52.344;20.870;2022-10-30T09:43:50;20.70;56.70
18978;DHT22;9623;52.344;20.870;2022-10-30T09:46:26;20.70;56.70
18978;DHT22;9623;52.344;20.870;2022-10-30T09:52:11;20.80;56.60
18978;DHT22;9623;52.344;20.870;2022-10-30T09:54:48;20.80;56.50
18978;DHT22;9623;52.344;20.870;2022-10-30T09:57:19;20.80;56.40
18978;DHT22;9623;52.344;20.870;2022-10-30T09:59:55;20.80;56.40
18978;DHT22;9623;52.344;20.870;2022-10-30T10:02:31;20.90;56.40
18978;DHT22;9623;52.344;20.870;2022-10-30T10:05:04;20.90;56.30
18978;DHT22;9623;52.344;20.870;2022-10-30T10:07:36;20.90;56.30
18978;DHT22;9623;52.344;20.870;2022-10-30T10:10:10;20.90;56.30
18978;DHT22;9623;52.344;20.870;2022-10-30T10:12:42;20.90;56.20
18978;DHT22;9623;52.344;20.870;2022-10-30T10:15:15;20.90;56.20
18978;DHT22;9623;52.344;20.870;2022-10-30T10:17:45;20.90;56.10
18978;DHT22;9623;52.344;20.870;2022-10-30T10:20:19;20.90;56.10
18978;DHT22;9623;52.344;20.870;2022-10-30T10:22:48;21.00;56.00
18978;DHT22;9623;52.344;20.870;2022-10-30T10:25:19;21.00;56.00
18978;DHT22;9623;52.344;20.870;2022-10-30T10:28:04;21.00;55.90
18978;DHT22;9623;52.344;20.870;2022-10-30T10:30:39;21.00;55.80
18978;DHT22;9623;52.344;20.870;2022-10-30T10:36:18;21.00;55.70
18978;DHT22;9623;52.344;20.870;2022-10-30T10:42:00;21.00;55.70
18978;DHT22;9623;52.344;20.870;2022-10-30T10:44:36;21.00;55.70
18978;DHT22;9623;52.344;20.870;2022-10-30T10:47:25;21.00;55.70
18978;DHT22;9623;52.344;20.870;2022-10-30T10:50:02;20.90;55.70
18978;DHT22;9623;52.344;20.870;2022-10-30T10:55:17;20.90;55.60
18978;DHT22;9623;52.344;20.870;2022-10-30T10:57:48;20.90;55.50
18978;DHT22;9623;52.344;20.870;2022-10-30T11:00:21;20.90;55.50
18978;DHT22;9623;52.344;20.870;2022-10-30T11:05:37;20.90;56.60
18978;DHT22;9623;52.344;20.870;2022-10-30T11:10:54;20.90;56.00
18978;DHT22;9623;52.344;20.870;2022-10-30T11:13:24;21.00;55.90
18978;DHT22;9623;52.344;20.870;2022-10-30T11:15:57;21.00;55.60
18978;DHT22;9623;52.344;20.870;2022-10-30T11:18:26;21.00;55.40
18978;DHT22;9623;52.344;20.870;2022-10-30T11:20:59;21.00;55.20
18978;DHT22;9623;52.344;20.870;2022-10-30T11:23:37;21.10;55.00
18978;DHT22;9623;52.344;20.870;2022-10-30T11:26:33;21.10;54.70
18978;DHT22;9623;52.344;20.870;2022-10-30T11:29:05;21.10;54.50
18978;DHT22;9623;52.344;20.870;2022-10-30T11:31:37;21.20;54.30
18978;DHT22;9623;52.344;20.870;2022-10-30T11:34:27;21.20;54.20
18978;DHT22;9623;52.344;20.870;2022-10-30T11:36:56;21.20;54.10
18978;DHT22;9623;52.344;20.870;2022-10-30T11:39:26;21.20;53.90
18978;DHT22;9623;52.344;20.870;2022-10-30T11:42:02;21.20;53.80
18978;DHT22;9623;52.344;20.870;2022-10-30T11:44:34;21.20;54.20
18978;DHT22;9623;52.344;20.870;2022-10-30T11:47:05;21.20;54.10
18978;DHT22;9623;52.344;20.870;2022-10-30T11:49:41;21.20;54.10
18978;DHT22;9623;52.344;20.870;2022-10-30T11:52:13;21.20;54.10
18978;DHT22;9623;52.344;20.870;2022-10-30T11:54:45;21.20;54.00
18978;DHT22;9623;52.344;20.870;2022-10-30T11:57:21;21.20;53.90
18978;DHT22;9623;52.344;20.870;2022-10-30T12:02:52;21.20;53.80
18978;DHT22;9623;52.344;20.870;2022-10-30T12:08:18;21.20;53.70
18978;DHT22;9623;52.344;20.870;2022-10-30T12:10:59;21.20;53.60
18978;DHT22;9623;52.344;20.870;2022-10-30T12:16:18;21.10;53.40
18978;DHT22;9623;52.344;20.870;2022-10-30T12:19:00;21.10;53.40
18978;DHT22;9623;52.344;20.870;2022-10-30T12:21:35;21.10;53.40
18978;DHT22;9623;52.344;20.870;2022-10-30T12:24:11;21.10;53.40
18978;DHT22;9623;52.344;20.870;2022-10-30T12:26:41;21.10;53.50
18978;DHT22;9623;52.344;20.870;2022-10-30T12:29:16;21.10;53.50
18978;DHT22;9623;52.344;20.870;2022-10-30T12:31:49;21.00;53.50
18978;DHT22;9623;52.344;20.870;2022-10-30T12:34:36;21.00;54.30
18978;DHT22;9623;52.344;20.870;2022-10-30T12:39:56;21.00;53.50
18978;DHT22;9623;52.344;20.870;2022-10-30T12:42:25;21.00;53.50
18978;DHT22;9623;52.344;20.870;2022-10-30T12:47:44;20.90;53.50
18978;DHT22;9623;52.344;20.870;2022-10-30T12:53:01;20.90;53.60
18978;DHT22;9623;52.344;20.870;2022-10-30T12:55:34;20.90;53.60
18978;DHT22;9623;52.344;20.870;2022-10-30T13:00:52;20.90;53.70
18978;DHT22;9623;52.344;20.870;2022-10-30T13:03:26;20.90;53.70
18978;DHT22;9623;52.344;20.870;2022-10-30T13:06:00;20.90;53.70
18978;DHT22;9623;52.344;20.870;2022-10-30T13:08:33;20.80;53.60
18978;DHT22;9623;52.344;20.870;2022-10-30T13:13:46;20.80;53.60
18978;DHT22;9623;52.344;20.870;2022-10-30T13:16:19;20.90;53.60
18978;DHT22;9623;52.344;20.870;2022-10-30T13:18:49;20.90;53.90
18978;DHT22;9623;52.344;20.870;2022-10-30T13:21:23;20.80;54.00
18978;DHT22;9623;52.344;20.870;2022-10-30T13:26:38;20.80;54.20
18978;DHT22;9623;52.344;20.870;2022-10-30T13:29:12;20.80;54.30
18978;DHT22;9623;52.344;20.870;2022-10-30T13:31:48;20.80;54.30
18978;DHT22;9623;52.344;20.870;2022-10-30T13:37:09;20.70;54.40
18978;DHT22;9623;52.344;20.870;2022-10-30T13:42:39;20.70;54.40
18978;DHT22;9623;52.344;20.870;2022-10-30T13:45:25;20.70;54.50
18978;DHT22;9623;52.344;20.870;2022-10-30T13:50:42;20.70;54.50
18978;DHT22;9623;52.344;20.870;2022-10-30T13:55:55;20.70;54.50
18978;DHT22;9623;52.344;20.870;2022-10-30T13:58:29;20.60;54.50
18978;DHT22;9623;52.344;20.870;2022-10-30T14:01:02;20.60;54.50
18978;DHT22;9623;52.344;20.870;2022-10-30T14:06:23;20.60;54.60
18978;DHT22;9623;52.344;20.870;2022-10-30T14:08:58;20.60;54.60
18978;DHT22;9623;52.344;20.870;2022-10-30T14:11:28;20.60;54.60
18978;DHT22;9623;52.344;20.870;2022-10-30T14:14:02;20.60;54.70
18978;DHT22;9623;52.344;20.870;2022-10-30T14:16:39;20.60;54.80
18978;DHT22;9623;52.344;20.870;2022-10-30T14:19:09;20.60;54.70
18978;DHT22;9623;52.344;20.870;2022-10-30T14:24:23;20.60;54.80
18978;DHT22;9623;52.344;20.870;2022-10-30T14:27:07;20.50;54.80
18978;DHT22;9623;52.344;20.870;2022-10-30T14:29:50;20.50;54.80
18978;DHT22;9623;52.344;20.870;2022-10-30T14:35:38;20.50;54.90
18978;DHT22;9623;52.344;20.870;2022-10-30T14:38:25;20.50;55.00
18978;DHT22;9623;52.344;20.870;2022-10-30T14:44:24;20.50;55.00
18978;DHT22;9623;52.344;20.870;2022-10-30T14:47:04;20.50;55.10
18978;DHT22;9623;52.344;20.870;2022-10-30T14:49:40;20.50;55.10
18978;DHT22;9623;52.344;20.870;2022-10-30T14:52:18;20.50;55.10
18978;DHT22;9623;52.344;20.870;2022-10-30T14:54:53;20.50;55.90
18978;DHT22;9623;52.344;20.870;2022-10-30T14:57:22;20.40;55.90
18978;DHT22;9623;52.344;20.870;2022-10-30T15:08:44;20.50;55.20
18978;DHT22;9623;52.344;20.870;2022-10-30T15:14:19;20.50;55.20
18978;DHT22;9623;52.344;20.870;2022-10-30T15:16:51;20.50;55.10
18978;DHT22;9623;52.344;20.870;2022-10-30T15:19:22;20.50;55.10
18978;DHT22;9623;52.344;20.870;2022-10-30T15:21:53;20.50;55.10
18978;DHT22;9623;52.344;20.870;2022-10-30T15:24:25;20.40;55.10
18978;DHT22;9623;52.344;20.870;2022-10-30T15:26:57;20.40;55.20
18978;DHT22;9623;52.344;20.870;2022-10-30T15:29:27;20.40;55.30
18978;DHT22;9623;52.344;20.870;2022-10-30T15:32:00;20.40;55.40
18978;DHT22;9623;52.344;20.870;2022-10-30T15:34:30;20.40;55.50
18978;DHT22;9623;52.344;20.870;2022-10-30T15:36:59;20.40;55.50
18978;DHT22;9623;52.344;20.870;2022-10-30T15:39:30;20.30;55.50
18978;DHT22;9623;52.344;20.870;2022-10-30T15:42:00;20.30;55.50
18978;DHT22;9623;52.344;20.870;2022-10-30T15:44:33;20.30;55.60
18978;DHT22;9623;52.344;20.870;2022-10-30T15:47:08;20.30;55.60
18978;DHT22;9623;52.344;20.870;2022-10-30T15:49:35;20.30;55.60
18978;DHT22;9623;52.344;20.870;2022-10-30T15:52:11;20.30;55.70
18978;DHT22;9623;52.344;20.870;2022-10-30T15:54:42;20.30;55.70
18978;DHT22;9623;52.344;20.870;2022-10-30T15:57:15;20.30;55.70
18978;DHT22;9623;52.344;20.870;2022-10-30T16:02:30;20.30;55.70
18978;DHT22;9623;52.344;20.870;2022-10-30T16:07:43;20.30;55.70
18978;DHT22;9623;52.344;20.870;2022-10-30T16:12:52;20.30;55.80
18978;DHT22;9623;52.344;20.870;2022-10-30T16:15:27;20.30;55.80
18978;DHT22;9623;52.344;20.870;2022-10-30T16:18:11;20.30;55.90
18978;DHT22;9623;52.344;20.870;2022-10-30T16:20:41;20.30;55.90
18978;DHT22;9623;52.344;20.870;2022-10-30T16:23:12;20.30;55.90
18978;DHT22;9623;52.344;20.870;2022-10-30T16:28:28;20.30;55.90
18978;DHT22;9623;52.344;20.870;2022-10-30T16:30:59;20.30;55.90
18978;DHT22;9623;52.344;20.870;2022-10-30T16:33:32;20.30;56.00
18978;DHT22;9623;52.344;20.870;2022-10-30T16:36:03;20.30;56.00
18978;DHT22;9623;52.344;20.870;2022-10-30T16:38:35;20.30;56.00
18978;DHT22;9623;52.344;20.870;2022-10-30T16:41:06;20.30;56.00
18978;DHT22;9623;52.344;20.870;2022-10-30T16:43:38;20.30;56.00
18978;DHT22;9623;52.344;20.870;2022-10-30T16:46:34;20.30;56.00
18978;DHT22;9623;52.344;20.870;2022-10-30T16:49:07;20.30;56.00
18978;DHT22;9623;52.344;20.870;2022-10-30T16:51:39;20.30;56.00
18978;DHT22;9623;52.344;20.870;2022-10-30T16:54:17;20.30;56.10
18978;DHT22;9623;52.344;20.870;2022-10-30T16:56:46;20.30;56.10
18978;DHT22;9623;52.344;20.870;2022-10-30T16:59:19;20.30;56.10
18978;DHT22;9623;52.344;20.870;2022-10-30T17:01:54;20.30;56.10
18978;DHT22;9623;52.344;20.870;2022-10-30T17:04:25;20.20;56.00
18978;DHT22;9623;52.344;20.870;2022-10-30T17:09:46;20.20;56.10
18978;DHT22;9623;52.344;20.870;2022-10-30T17:15:09;20.20;56.10
18978;DHT22;9623;52.344;20.870;2022-10-30T17:17:41;20.20;56.10
18978;DHT22;9623;52.344;20.870;2022-10-30T17:20:23;20.20;56.20
18978;DHT22;9623;52.344;20.870;2022-10-30T17:22:45;20.30;56.20
18978;DHT22;9623;52.344;20.870;2022-10-30T17:25:17;20.30;56.50
18978;DHT22;9623;52.344;20.870;2022-10-30T17:27:47;20.30;56.50
18978;DHT22;9623;52.344;20.870;2022-10-30T17:33:34;20.30;56.40
18978;DHT22;9623;52.344;20.870;2022-10-30T17:36:04;20.30;56.30
18978;DHT22;9623;52.344;20.870;2022-10-30T17:38:33;20.30;56.30
18978;DHT22;9623;52.344;20.870;2022-10-30T17:43:50;20.30;56.20
18978;DHT22;9623;52.344;20.870;2022-10-30T17:48:58;20.20;56.10
18978;DHT22;9623;52.344;20.870;2022-10-30T17:51:28;20.20;56.10
18978;DHT22;9623;52.344;20.870;2022-10-30T17:53:58;20.20;56.20
18978;DHT22;9623;52.344;20.870;2022-10-30T17:56:30;20.20;56.10
18978;DHT22;9623;52.344;20.870;2022-10-30T17:59:00;20.20;56.10
18978;DHT22;9623;52.344;20.870;2022-10-30T18:01:31;20.20;56.10
18978;DHT22;9623;52.344;20.870;2022-10-30T18:04:00;20.20;56.10
18978;DHT22;9623;52.344;20.870;2022-10-30T18:06:29;20.20;56.00
18978;DHT22;9623;52.344;20.870;2022-10-30T18:08:59;20.20;56.00
18978;DHT22;9623;52.344;20.870;2022-10-30T18:11:29;20.20;56.00
18978;DHT22;9623;52.344;20.870;2022-10-30T18:14:00;20.20;56.00
18978;DHT22;9623;52.344;20.870;2022-10-30T18:16:31;20.20;56.00
18978;DHT22;9623;52.344;20.870;2022-10-30T18:19:01;20.20;56.00
18978;DHT22;9623;52.344;20.870;2022-10-30T18:21:31;20.20;56.00
18978;DHT22;9623;52.344;20.870;2022-10-30T18:24:00;20.20;56.00
18978;DHT22;9623;52.344;20.870;2022-10-30T18:26:30;20.20;56.00
18978;DHT22;9623;52.344;20.870;2022-10-30T18:28:59;20.20;55.90
18978;DHT22;9623;52.344;20.870;2022-10-30T18:31:30;20.20;55.90
18978;DHT22;9623;52.344;20.870;2022-10-30T18:34:00;20.20;56.00
18978;DHT22;9623;52.344;20.870;2022-10-30T18:36:29;20.20;55.90
18978;DHT22;9623;52.344;20.870;2022-10-30T18:38:58;20.10;55.80
18978;DHT22;9623;52.344;20.870;2022-10-30T18:41:29;20.20;55.50
18978;DHT22;9623;52.344;20.870;2022-10-30T18:43:59;20.10;55.80
18978;DHT22;9623;52.344;20.870;2022-10-30T18:46:30;20.10;55.80
18978;DHT22;9623;52.344;20.870;2022-10-30T18:49:00;20.10;55.80
18978;DHT22;9623;52.344;20.870;2022-10-30T18:51:29;20.10;55.90
18978;DHT22;9623;52.344;20.870;2022-10-30T18:56:36;20.30;56.70
18978;DHT22;9623;52.344;20.870;2022-10-30T18:59:05;20.30;56.30
18978;DHT22;9623;52.344;20.870;2022-10-30T19:01:35;20.30;56.20
18978;DHT22;9623;52.344;20.870;2022-10-30T19:04:08;20.30;56.10